Portada
METAR-TAF:

METAR-TAF

Aeroports :

Aeroport Internacional Maiquetía Simón Bolívar

Caracas, Veneçuela

latitud: 10-36N, longitud: 066-59W, altitud: 43 m

Observació

L'informe es va fer fa 54 minuts, a les 17:00 UTC
Vent 6 kt del Nord
Temperatura 33°C
Humitat 59%
Pressió 1014 hPa
Visibilitat 10 km o més
Núvols disperses a una alçada de 1600 ft
Núvols disperses a una alçada de 20000 ft

METAR: SVMI 241700Z 36006KT 9999 SCT016 SCT200 33/24 Q1014

Hora: 13:54 (17:54 UTC)

Pronòstic

L'informe es va fer fa 1 hora i 54 minuts, a les 16:00 UTC
Pronòstic vàlid del 24 a les 18 UTC al 25 a les 18 UTC
Vent 5 kt del Oest
Visibilitat 10 km o més
Núvols disperses a una alçada de 1600 ft
Evolucionant progressivament
l' 24 a les 18 UTC al 24 a les 22 UTC
Vent 6 kt del Oest
Visibilitat 10 km o més
Escasses núvols a una alçada de 1600 ft
Núvols disperses a una alçada de 7000 ft

TAF: SVMI 241600Z 2418/2518 26005KT 9999 SCT016 TX34/2418Z TN23/2408Z BECMG 2418/2422 28006KT 9999 FEW016 SCT070

Observacions i pronòstics meteorològics de més de 4000 aeroports (METAR i TAF).

Les estacions disponibles són els punts grocs i vermells al mapa.

Posi el ratolí al punt desitjat per veure el nom de l'estació.

Feu clic per veure les observacions i els pronòstics meteorològics.

Per canviar el mapa: feu clic els botons verds amb una creu de color negre per apropar; al botó verd amb un guió per allunyar la imatge; o en les fletxes verdes per a mapes adjacents.


METAR-TAF: